Terminal Aerodrome Forecast
Issued by NWS

Home | Current Version | Previous Version | Graphics & Text | Print | Product List | Glossary On
Versions: 1 2 3 4 5 6 7 8 9 10 11 12 13 14 15 16 17 18
000
FTUS43 KUNR 061720
TAFGCC
TAF
KGCC 061720Z 0618/0718 06006KT P6SM BKN050
      TEMPO 0618/0621 SCT015 BKN025
     FM070600 17011KT P6SM BKN100=

USA.gov is the U.S. government's official web portal to all federal, state and local government web resources and services.